sensor_id;sensor_type;location;lat;lon;timestamp;P1;durP1;ratioP1;P2;durP2;ratioP2
66663;SDS011;59683;51.428;-1.994;2023-04-24T06:35:48;19.17;;;11.45;;
66663;SDS011;59683;51.428;-1.994;2023-04-24T06:38:13;16.97;;;11.00;;
66663;SDS011;59683;51.428;-1.994;2023-04-24T06:40:39;17.87;;;10.77;;
66663;SDS011;59683;51.428;-1.994;2023-04-24T06:43:05;18.13;;;9.90;;
66663;SDS011;59683;51.428;-1.994;2023-04-24T06:45:31;14.95;;;9.45;;
66663;SDS011;59683;51.428;-1.994;2023-04-24T06:47:56;13.60;;;8.43;;
66663;SDS011;59683;51.428;-1.994;2023-04-24T06:50:22;15.10;;;9.00;;
66663;SDS011;59683;51.428;-1.994;2023-04-24T06:52:47;13.40;;;7.70;;
66663;SDS011;59683;51.428;-1.994;2023-04-24T06:55:13;15.17;;;8.17;;
66663;SDS011;59683;51.428;-1.994;2023-04-24T06:57:40;12.60;;;7.17;;
66663;SDS011;59683;51.428;-1.994;2023-04-24T07:00:05;15.87;;;7.70;;
66663;SDS011;59683;51.428;-1.994;2023-04-24T07:02:32;14.90;;;7.50;;
66663;SDS011;59683;51.428;-1.994;2023-04-24T07:04:57;17.63;;;7.17;;
66663;SDS011;59683;51.428;-1.994;2023-04-24T07:07:22;10.83;;;6.63;;
66663;SDS011;59683;51.428;-1.994;2023-04-24T07:09:48;13.63;;;7.63;;
66663;SDS011;59683;51.428;-1.994;2023-04-24T07:12:14;10.77;;;7.17;;
66663;SDS011;59683;51.428;-1.994;2023-04-24T07:14:39;11.87;;;6.50;;
66663;SDS011;59683;51.428;-1.994;2023-04-24T07:17:05;11.33;;;7.30;;
66663;SDS011;59683;51.428;-1.994;2023-04-24T07:19:31;13.03;;;6.23;;
66663;SDS011;59683;51.428;-1.994;2023-04-24T07:21:58;9.73;;;6.20;;
66663;SDS011;59683;51.428;-1.994;2023-04-24T07:24:24;10.93;;;6.10;;
66663;SDS011;59683;51.428;-1.994;2023-04-24T07:26:54;11.53;;;5.90;;
66663;SDS011;59683;51.428;-1.994;2023-04-24T07:29:20;10.83;;;6.03;;
66663;SDS011;59683;51.428;-1.994;2023-04-24T07:31:46;13.00;;;6.13;;
66663;SDS011;59683;51.428;-1.994;2023-04-24T07:34:11;11.07;;;6.07;;
66663;SDS011;59683;51.428;-1.994;2023-04-24T07:36:37;9.40;;;6.07;;
66663;SDS011;59683;51.428;-1.994;2023-04-24T07:39:05;9.30;;;5.20;;
66663;SDS011;59683;51.428;-1.994;2023-04-24T07:41:30;13.40;;;6.47;;
66663;SDS011;59683;51.428;-1.994;2023-04-24T07:43:56;10.47;;;6.83;;
66663;SDS011;59683;51.428;-1.994;2023-04-24T07:46:21;9.80;;;6.07;;
66663;SDS011;59683;51.428;-1.994;2023-04-24T07:48:48;12.00;;;6.80;;
66663;SDS011;59683;51.428;-1.994;2023-04-24T07:51:14;12.17;;;6.70;;
66663;SDS011;59683;51.428;-1.994;2023-04-24T07:53:40;12.67;;;6.43;;
66663;SDS011;59683;51.428;-1.994;2023-04-24T07:56:06;12.23;;;6.13;;
66663;SDS011;59683;51.428;-1.994;2023-04-24T07:58:31;13.93;;;7.93;;
66663;SDS011;59683;51.428;-1.994;2023-04-24T08:00:57;10.43;;;5.90;;
66663;SDS011;59683;51.428;-1.994;2023-04-24T08:03:22;12.17;;;6.10;;
66663;SDS011;59683;51.428;-1.994;2023-04-24T08:05:48;15.70;;;6.57;;
66663;SDS011;59683;51.428;-1.994;2023-04-24T08:08:15;13.13;;;6.37;;
66663;SDS011;59683;51.428;-1.994;2023-04-24T08:10:41;11.70;;;6.10;;
66663;SDS011;59683;51.428;-1.994;2023-04-24T08:13:06;10.53;;;6.20;;
66663;SDS011;59683;51.428;-1.994;2023-04-24T08:15:32;9.90;;;5.97;;
66663;SDS011;59683;51.428;-1.994;2023-04-24T08:17:57;8.43;;;5.67;;
66663;SDS011;59683;51.428;-1.994;2023-04-24T08:20:23;18.57;;;5.90;;
66663;SDS011;59683;51.428;-1.994;2023-04-24T08:22:48;11.10;;;6.23;;
66663;SDS011;59683;51.428;-1.994;2023-04-24T08:25:14;22.03;;;7.23;;
66663;SDS011;59683;51.428;-1.994;2023-04-24T08:27:39;17.73;;;7.10;;
66663;SDS011;59683;51.428;-1.994;2023-04-24T08:30:05;13.27;;;5.63;;
66663;SDS011;59683;51.428;-1.994;2023-04-24T08:32:31;9.37;;;5.43;;
66663;SDS011;59683;51.428;-1.994;2023-04-24T08:34:57;11.57;;;6.50;;
66663;SDS011;59683;51.428;-1.994;2023-04-24T08:37:23;18.30;;;7.03;;
66663;SDS011;59683;51.428;-1.994;2023-04-24T08:39:50;11.47;;;5.97;;
66663;SDS011;59683;51.428;-1.994;2023-04-24T08:42:17;8.30;;;6.13;;
66663;SDS011;59683;51.428;-1.994;2023-04-24T08:44:43;11.77;;;6.10;;
66663;SDS011;59683;51.428;-1.994;2023-04-24T08:47:09;9.80;;;6.20;;
66663;SDS011;59683;51.428;-1.994;2023-04-24T08:49:36;11.73;;;5.90;;
66663;SDS011;59683;51.428;-1.994;2023-04-24T08:52:02;14.33;;;6.87;;
66663;SDS011;59683;51.428;-1.994;2023-04-24T08:54:28;10.23;;;6.70;;
66663;SDS011;59683;51.428;-1.994;2023-04-24T08:56:54;11.00;;;5.60;;
66663;SDS011;59683;51.428;-1.994;2023-04-24T08:59:24;9.10;;;5.68;;
66663;SDS011;59683;51.428;-1.994;2023-04-24T09:01:49;11.83;;;6.10;;
66663;SDS011;59683;51.428;-1.994;2023-04-24T09:04:17;10.10;;;5.57;;
66663;SDS011;59683;51.428;-1.994;2023-04-24T09:06:44;8.27;;;5.43;;
66663;SDS011;59683;51.428;-1.994;2023-04-24T09:09:10;10.70;;;5.93;;
66663;SDS011;59683;51.428;-1.994;2023-04-24T09:11:36;7.70;;;4.93;;
66663;SDS011;59683;51.428;-1.994;2023-04-24T09:14:02;10.00;;;5.67;;
66663;SDS011;59683;51.428;-1.994;2023-04-24T09:16:28;9.60;;;5.43;;
66663;SDS011;59683;51.428;-1.994;2023-04-24T09:18:54;10.07;;;5.17;;
66663;SDS011;59683;51.428;-1.994;2023-04-24T09:21:21;10.47;;;5.47;;
66663;SDS011;59683;51.428;-1.994;2023-04-24T09:23:57;8.63;;;5.30;;
66663;SDS011;59683;51.428;-1.994;2023-04-24T09:26:24;11.07;;;4.87;;
66663;SDS011;59683;51.428;-1.994;2023-04-24T09:28:50;9.10;;;4.60;;
66663;SDS011;59683;51.428;-1.994;2023-04-24T09:31:17;6.37;;;3.87;;
66663;SDS011;59683;51.428;-1.994;2023-04-24T09:33:57;6.53;;;4.13;;
66663;SDS011;59683;51.428;-1.994;2023-04-24T09:36:31;6.45;;;3.85;;
66663;SDS011;59683;51.428;-1.994;2023-04-24T09:39:02;7.07;;;3.80;;
66663;SDS011;59683;51.428;-1.994;2023-04-24T09:41:29;6.73;;;4.03;;
66663;SDS011;59683;51.428;-1.994;2023-04-24T09:43:55;6.03;;;3.67;;
66663;SDS011;59683;51.428;-1.994;2023-04-24T09:46:21;7.33;;;3.57;;
66663;SDS011;59683;51.428;-1.994;2023-04-24T09:48:54;7.37;;;4.60;;
66663;SDS011;59683;51.428;-1.994;2023-04-24T09:51:19;7.27;;;4.43;;
66663;SDS011;59683;51.428;-1.994;2023-04-24T09:53:59;9.13;;;4.70;;
66663;SDS011;59683;51.428;-1.994;2023-04-24T09:56:25;9.70;;;5.87;;
66663;SDS011;59683;51.428;-1.994;2023-04-24T09:58:51;8.00;;;5.63;;
66663;SDS011;59683;51.428;-1.994;2023-04-24T10:01:16;8.33;;;5.60;;
66663;SDS011;59683;51.428;-1.994;2023-04-24T10:03:55;8.47;;;5.83;;
66663;SDS011;59683;51.428;-1.994;2023-04-24T10:06:20;12.00;;;6.33;;
66663;SDS011;59683;51.428;-1.994;2023-04-24T10:08:46;11.20;;;6.53;;
66663;SDS011;59683;51.428;-1.994;2023-04-24T10:11:13;10.40;;;6.60;;
66663;SDS011;59683;51.428;-1.994;2023-04-24T10:13:39;12.57;;;7.67;;
66663;SDS011;59683;51.428;-1.994;2023-04-24T10:16:05;10.17;;;6.50;;
66663;SDS011;59683;51.428;-1.994;2023-04-24T10:18:32;12.70;;;6.20;;
66663;SDS011;59683;51.428;-1.994;2023-04-24T10:20:59;10.63;;;6.23;;
66663;SDS011;59683;51.428;-1.994;2023-04-24T10:23:26;10.67;;;5.87;;
66663;SDS011;59683;51.428;-1.994;2023-04-24T10:25:51;9.90;;;6.37;;
66663;SDS011;59683;51.428;-1.994;2023-04-24T10:28:17;7.50;;;5.30;;
66663;SDS011;59683;51.428;-1.994;2023-04-24T10:30:45;8.70;;;6.03;;
66663;SDS011;59683;51.428;-1.994;2023-04-24T10:33:11;14.97;;;6.43;;
66663;SDS011;59683;51.428;-1.994;2023-04-24T10:35:44;9.63;;;5.17;;
66663;SDS011;59683;51.428;-1.994;2023-04-24T10:38:14;10.83;;;5.33;;
66663;SDS011;59683;51.428;-1.994;2023-04-24T10:40:43;8.48;;;5.05;;
66663;SDS011;59683;51.428;-1.994;2023-04-24T10:43:09;8.50;;;5.10;;
66663;SDS011;59683;51.428;-1.994;2023-04-24T10:45:36;6.80;;;4.20;;
66663;SDS011;59683;51.428;-1.994;2023-04-24T10:48:03;8.23;;;4.77;;
66663;SDS011;59683;51.428;-1.994;2023-04-24T10:50:53;11.50;;;5.50;;
66663;SDS011;59683;51.428;-1.994;2023-04-24T10:53:24;6.73;;;4.37;;
66663;SDS011;59683;51.428;-1.994;2023-04-24T10:56:05;7.90;;;4.93;;
66663;SDS011;59683;51.428;-1.994;2023-04-24T10:58:42;7.47;;;4.22;;
66663;SDS011;59683;51.428;-1.994;2023-04-24T11:01:22;8.07;;;4.60;;
66663;SDS011;59683;51.428;-1.994;2023-04-24T11:03:56;6.70;;;4.23;;
66663;SDS011;59683;51.428;-1.994;2023-04-24T11:06:36;8.50;;;4.30;;
66663;SDS011;59683;51.428;-1.994;2023-04-24T11:09:06;8.10;;;4.73;;
66663;SDS011;59683;51.428;-1.994;2023-04-24T11:11:33;10.87;;;5.10;;
66663;SDS011;59683;51.428;-1.994;2023-04-24T11:16:35;6.87;;;4.40;;
66663;SDS011;59683;51.428;-1.994;2023-04-24T11:21:44;12.57;;;5.47;;
66663;SDS011;59683;51.428;-1.994;2023-04-24T11:29:37;7.80;;;4.77;;
66663;SDS011;59683;51.428;-1.994;2023-04-24T11:32:17;9.33;;;5.13;;
66663;SDS011;59683;51.428;-1.994;2023-04-24T11:34:47;9.43;;;5.80;;
66663;SDS011;59683;51.428;-1.994;2023-04-24T11:37:17;10.30;;;6.30;;
66663;SDS011;59683;51.428;-1.994;2023-04-24T14:27:14;10.10;;;4.87;;
66663;SDS011;59683;51.428;-1.994;2023-04-24T14:44:05;8.23;;;4.90;;
66663;SDS011;59683;51.428;-1.994;2023-04-24T14:46:31;8.57;;;4.23;;
